Time;durP1;ratioP1;P1;durP2;ratioP2;P2;SDS_P1;SDS_P2;PMS_P1;PMS_P2;Temp;Humidity;BMP_temperature;BMP_pressure;BME280_temperature;BME280_humidity;BME280_pressure;Samples;Min_cycle;Max_cycle;Signal;HPM_P1;HPM_P2
2022/09/15 00:01:57;;;;;;;3.08;2.47;;;;;;;17.61;nan;-24307.59;5031750;28;20265;-61
2022/09/15 00:04:23;;;;;;;3.72;2.63;;;;;;;17.42;nan;-24302.44;5043157;28;20190;-64
2022/09/15 00:06:48;;;;;;;6.63;3.00;;;;;;;17.18;nan;-24295.72;5045924;28;20190;-65
2022/09/15 00:09:14;;;;;;;5.20;2.75;;;;;;;17.45;nan;-24303.13;5033044;28;20187;-64
2022/09/15 00:11:39;;;;;;;7.55;3.17;;;;;;;17.58;nan;-24306.91;5035466;28;20222;-67
2022/09/15 00:14:06;;;;;;;6.93;2.67;;;;;;;17.47;nan;-24303.69;5041902;28;20171;-64
2022/09/15 00:16:32;;;;;;;5.38;2.80;;;;;;;17.55;nan;-24306.06;5044216;28;20187;-64
2022/09/15 00:18:59;;;;;;;7.65;2.72;;;;;;;17.48;nan;-24303.97;5031931;28;20562;-64
2022/09/15 00:21:29;;;;;;;3.33;2.38;;;;;;;17.21;nan;-24296.56;5044516;28;20231;-65
2022/09/15 00:23:55;;;;;;;3.25;2.35;;;;;;;17.49;nan;-24304.38;5042037;28;20194;-64
2022/09/15 00:26:23;;;;;;;4.95;2.60;;;;;;;17.38;nan;-24301.31;5035802;28;20190;-65
2022/09/15 00:28:49;;;;;;;3.88;2.67;;;;;;;17.39;nan;-24301.59;5039861;28;20184;-65
2022/09/15 00:31:19;;;;;;;3.72;2.50;;;;;;;17.37;nan;-24300.91;5039905;28;20202;-63
2022/09/15 00:33:49;;;;;;;3.33;2.35;;;;;;;17.29;nan;-24298.81;5040346;28;20244;-66
2022/09/15 00:36:16;;;;;;;4.30;2.55;;;;;;;17.19;nan;-24296.00;5043488;28;20189;-64
2022/09/15 00:38:41;;;;;;;6.15;2.55;;;;;;;17.47;nan;-24303.81;5044093;28;20665;-62
2022/09/15 00:41:09;;;;;;;5.53;2.47;;;;;;;17.25;nan;-24297.56;5045100;28;20187;-65
2022/09/15 00:43:46;;;;;;;4.00;2.63;;;;;;;17.20;nan;-24296.44;5050660;28;20275;-64
2022/09/15 00:46:13;;;;;;;7.85;2.80;;;;;;;17.03;nan;-24291.53;5042561;28;20576;-64
2022/09/15 00:48:44;;;;;;;3.17;2.35;;;;;;;17.40;nan;-24301.88;5050514;28;20661;-65
2022/09/15 00:51:13;;;;;;;4.70;2.85;;;;;;;17.06;nan;-24292.38;5034892;28;20203;-64
2022/09/15 00:53:39;;;;;;;4.22;2.58;;;;;;;17.36;nan;-24300.75;5040811;28;20197;-64
2022/09/15 00:56:08;;;;;;;4.15;2.50;;;;;;;17.27;nan;-24298.25;5042352;28;20552;-64
2022/09/15 00:58:40;;;;;;;4.15;2.83;;;;;;;17.30;nan;-24299.09;5050466;28;20205;-65
2022/09/15 01:01:07;;;;;;;3.85;2.65;;;;;;;16.95;nan;-24289.31;5040393;28;20179;-65
2022/09/15 01:03:34;;;;;;;3.97;2.60;;;;;;;17.09;nan;-24293.34;5037544;28;20257;-63
2022/09/15 01:06:18;;;;;;;4.40;2.42;;;;;;;17.29;nan;-24298.66;5044253;28;20209;-63
2022/09/15 01:09:00;;;;;;;3.63;2.58;;;;;;;17.27;nan;-24298.25;5037617;28;20183;-65
2022/09/15 01:11:26;;;;;;;4.68;2.95;;;;;;;17.04;nan;-24291.81;5045266;28;20199;-63
2022/09/15 01:13:52;;;;;;;4.38;3.03;;;;;;;16.96;nan;-24289.59;5049639;28;20185;-64
2022/09/15 01:16:38;;;;;;;7.18;2.50;;;;;;;16.94;nan;-24289.03;5046671;28;20175;-64
2022/09/15 01:19:38;;;;;;;3.92;2.67;;;;;;;16.97;nan;-24289.88;5047154;28;20186;-63
2022/09/15 01:22:22;;;;;;;3.85;2.30;;;;;;;17.27;nan;-24298.09;5037756;28;20317;-64
2022/09/15 01:25:08;;;;;;;4.97;2.55;;;;;;;17.19;nan;-24296.00;5042826;28;20200;-65
2022/09/15 01:28:00;;;;;;;3.35;2.30;;;;;;;17.23;nan;-24297.13;5038692;28;20638;-67
2022/09/15 01:30:28;;;;;;;2.80;2.13;;;;;;;17.16;nan;-24295.31;5039310;28;20217;-67
2022/09/15 01:33:26;;;;;;;4.47;2.63;;;;;;;17.16;nan;-24295.31;5037746;28;20226;-62
2022/09/15 01:36:02;;;;;;;5.15;2.97;;;;;;;17.14;nan;-24294.63;5040137;28;20256;-63
2022/09/15 01:38:36;;;;;;;3.65;2.75;;;;;;;17.22;nan;-24296.84;5042782;28;20221;-63
2022/09/15 01:41:08;;;;;;;3.67;2.53;;;;;;;17.14;nan;-24294.63;5042938;28;20187;-63
2022/09/15 01:43:46;;;;;;;4.25;2.78;;;;;;;16.98;nan;-24290.16;5044735;28;20183;-65
2022/09/15 01:46:14;;;;;;;5.00;2.67;;;;;;;16.67;nan;-24281.78;5047281;28;20218;-63
2022/09/15 01:48:41;;;;;;;4.28;2.80;;;;;;;16.46;nan;-24275.88;5042651;28;20602;-61
2022/09/15 01:51:08;;;;;;;3.90;2.90;;;;;;;16.67;nan;-24281.78;5033913;28;20249;-64
2022/09/15 01:53:34;;;;;;;5.68;3.00;;;;;;;16.93;nan;-24288.75;5033604;28;20167;-62
2022/09/15 01:56:05;;;;;;;3.72;2.40;;;;;;;17.14;nan;-24294.63;5046529;28;20195;-63
2022/09/15 01:58:32;;;;;;;3.58;2.40;;;;;;;17.12;nan;-24294.06;5045262;28;20187;-60
2022/09/15 02:01:10;;;;;;;3.45;2.40;;;;;;;16.70;nan;-24282.47;5048120;28;20202;-62
2022/09/15 02:03:45;;;;;;;3.80;2.47;;;;;;;17.00;nan;-24290.72;5032483;28;20198;-62
2022/09/15 02:06:19;;;;;;;4.18;2.92;;;;;;;16.90;nan;-24288.06;5052507;28;20281;-62
2022/09/15 02:08:57;;;;;;;4.45;2.85;;;;;;;17.15;nan;-24294.91;5032442;28;20197;-61
2022/09/15 02:11:26;;;;;;;3.53;2.72;;;;;;;16.83;nan;-24285.97;5041122;28;20229;-63
2022/09/15 02:14:16;;;;;;;3.33;2.60;;;;;;;16.71;nan;-24282.88;5042399;28;20186;-65
2022/09/15 02:16:47;;;;;;;4.25;2.47;;;;;;;16.62;nan;-24280.38;5033738;28;20706;-63
2022/09/15 02:19:30;;;;;;;2.80;2.40;;;;;;;16.75;nan;-24284.00;5041377;28;20244;-66
2022/09/15 02:21:56;;;;;;;6.53;2.42;;;;;;;16.82;nan;-24285.69;5035676;28;20596;-65
2022/09/15 02:24:42;;;;;;;4.20;2.72;;;;;;;16.73;nan;-24283.31;5041101;28;20190;-61
2022/09/15 02:27:11;;;;;;;3.60;2.67;;;;;;;16.78;nan;-24284.84;5048014;28;20214;-63
2022/09/15 02:29:38;;;;;;;5.35;2.67;;;;;;;16.79;nan;-24284.97;5043487;28;20685;-62
2022/09/15 02:32:07;;;;;;;3.58;2.47;;;;;;;16.83;nan;-24286.09;5037430;28;20226;-65
2022/09/15 02:34:40;;;;;;;3.60;2.50;;;;;;;16.55;nan;-24278.28;5043848;28;20187;-65
2022/09/15 02:37:08;;;;;;;8.73;3.10;;;;;;;16.90;nan;-24287.91;5044885;28;20618;-66
2022/09/15 02:39:38;;;;;;;3.40;2.75;;;;;;;16.65;nan;-24281.06;5041851;28;20649;-63
2022/09/15 02:42:04;;;;;;;4.22;2.45;;;;;;;16.84;nan;-24286.22;5043242;28;20179;-65
2022/09/15 02:44:30;;;;;;;4.57;2.80;;;;;;;16.97;nan;-24290.00;5037339;28;20183;-64
2022/09/15 02:47:00;;;;;;;4.88;2.65;;;;;;;16.69;nan;-24282.19;5046636;28;20193;-61
2022/09/15 02:49:27;;;;;;;3.45;2.78;;;;;;;17.01;nan;-24291.13;5038143;28;20592;-64
2022/09/15 02:51:52;;;;;;;2.85;2.33;;;;;;;16.97;nan;-24289.88;5042640;28;20349;-63
2022/09/15 02:54:18;;;;;;;4.03;2.70;;;;;;;16.72;nan;-24283.16;5034101;28;20234;-64
2022/09/15 02:56:44;;;;;;;3.47;2.72;;;;;;;16.60;nan;-24279.81;5054516;28;20179;-62
2022/09/15 02:59:09;;;;;;;3.88;2.80;;;;;;;16.87;nan;-24287.22;5041976;28;20554;-66
2022/09/15 03:01:35;;;;;;;4.32;2.85;;;;;;;16.89;nan;-24287.63;5041404;28;20182;-62
2022/09/15 03:04:02;;;;;;;3.60;2.55;;;;;;;16.80;nan;-24285.25;5033720;28;20206;-65
2022/09/15 03:06:33;;;;;;;4.68;2.60;;;;;;;16.58;nan;-24279.25;5041590;28;20178;-63
2022/09/15 03:09:01;;;;;;;2.63;2.17;;;;;;;16.59;nan;-24279.41;5034627;28;20175;-67
2022/09/15 03:11:28;;;;;;;3.28;2.40;;;;;;;16.54;nan;-24278.00;5032470;28;20191;-64
2022/09/15 03:13:55;;;;;;;4.05;2.30;;;;;;;16.43;nan;-24274.91;5032101;28;20182;-64
2022/09/15 03:16:21;;;;;;;7.55;2.95;;;;;;;16.59;nan;-24279.53;5040287;28;20194;-65
2022/09/15 03:18:47;;;;;;;4.82;2.97;;;;;;;16.54;nan;-24278.13;5047515;28;20484;-66
2022/09/15 03:21:14;;;;;;;4.20;2.50;;;;;;;16.30;nan;-24271.56;5033296;28;20353;-65
2022/09/15 03:23:40;;;;;;;4.72;2.88;;;;;;;16.35;nan;-24272.81;5034337;28;20180;-63
2022/09/15 03:26:07;;;;;;;5.18;3.03;;;;;;;16.83;nan;-24286.09;5035912;28;20193;-65
2022/09/15 03:28:33;;;;;;;3.88;2.75;;;;;;;16.62;nan;-24280.22;5034288;28;20678;-64
2022/09/15 03:30:59;;;;;;;5.72;2.92;;;;;;;16.57;nan;-24278.97;5034528;28;20209;-63
2022/09/15 03:33:25;;;;;;;3.33;2.60;;;;;;;16.34;nan;-24272.69;5036242;28;20186;-61
2022/09/15 03:35:52;;;;;;;4.63;2.78;;;;;;;16.55;nan;-24278.28;5036012;28;20695;-62
2022/09/15 03:38:18;;;;;;;6.00;3.05;;;;;;;16.39;nan;-24273.78;5035847;28;20579;-61
2022/09/15 03:40:55;;;;;;;4.55;3.05;;;;;;;16.76;nan;-24284.13;5042596;28;20260;-65
2022/09/15 03:43:20;;;;;;;4.13;3.00;;;;;;;16.23;nan;-24269.59;5034494;28;20183;-62
2022/09/15 03:45:46;;;;;;;4.03;2.60;;;;;;;16.18;nan;-24268.06;5036016;28;20190;-65
2022/09/15 03:48:11;;;;;;;4.40;3.10;;;;;;;16.72;nan;-24283.16;5035812;28;20234;-62
2022/09/15 03:50:37;;;;;;;5.00;2.88;;;;;;;16.73;nan;-24283.31;5036245;28;20636;-64
2022/09/15 03:53:02;;;;;;;6.55;3.63;;;;;;;16.25;nan;-24270.16;5034899;28;20194;-62
2022/09/15 03:55:29;;;;;;;4.55;2.95;;;;;;;16.40;nan;-24274.06;5035618;28;20677;-63
2022/09/15 03:57:54;;;;;;;4.72;3.17;;;;;;;16.70;nan;-24282.59;5036742;28;20271;-62
2022/09/15 04:00:21;;;;;;;4.78;2.85;;;;;;;16.72;nan;-24283.16;5034892;28;20191;-64
2022/09/15 04:02:46;;;;;;;4.60;2.88;;;;;;;16.51;nan;-24277.28;5034692;28;20240;-64
2022/09/15 04:05:12;;;;;;;5.53;2.83;;;;;;;16.70;nan;-24282.59;5035888;28;20190;-65
2022/09/15 04:07:38;;;;;;;6.75;3.17;;;;;;;16.60;nan;-24279.66;5038497;28;20261;-62
2022/09/15 04:10:05;;;;;;;3.28;2.60;;;;;;;16.57;nan;-24278.97;5039456;28;20183;-63
2022/09/15 04:12:31;;;;;;;5.78;3.80;;;;;;;16.60;nan;-24279.66;5039648;28;20223;-61
2022/09/15 04:14:57;;;;;;;11.05;4.25;;;;;;;16.19;nan;-24268.47;5039501;28;20544;-63
2022/09/15 04:17:22;;;;;;;6.25;3.72;;;;;;;16.38;nan;-24273.50;5039153;28;20324;-61
2022/09/15 04:19:48;;;;;;;6.57;3.40;;;;;;;16.60;nan;-24279.81;5038585;28;20181;-64
2022/09/15 04:22:13;;;;;;;4.65;3.30;;;;;;;16.58;nan;-24279.13;5040245;28;20588;-65
2022/09/15 04:24:39;;;;;;;5.18;3.30;;;;;;;16.85;nan;-24286.66;5038909;28;20198;-66
2022/09/15 04:27:04;;;;;;;3.80;2.63;;;;;;;16.55;nan;-24278.41;5039384;28;20633;-66
2022/09/15 04:29:30;;;;;;;5.93;3.03;;;;;;;16.38;nan;-24273.66;5039189;28;20764;-66
2022/09/15 04:31:55;;;;;;;5.85;3.45;;;;;;;16.31;nan;-24271.69;5038546;28;20207;-66
2022/09/15 04:34:21;;;;;;;5.07;3.08;;;;;;;16.66;nan;-24281.34;5035423;28;20319;-65
2022/09/15 04:36:46;;;;;;;4.25;3.15;;;;;;;16.63;nan;-24280.50;5038494;28;20210;-65
2022/09/15 04:39:12;;;;;;;5.63;3.25;;;;;;;16.87;nan;-24287.22;5038885;28;20214;-66
2022/09/15 04:41:38;;;;;;;4.75;3.53;;;;;;;16.92;nan;-24288.47;5037588;28;20494;-66
2022/09/15 04:44:03;;;;;;;5.63;3.35;;;;;;;17.09;nan;-24293.22;5038003;28;20171;-66
2022/09/15 04:46:29;;;;;;;5.18;3.28;;;;;;;17.21;nan;-24296.56;5038723;28;20192;-66
2022/09/15 04:48:55;;;;;;;6.80;3.28;;;;;;;17.05;nan;-24292.09;5037438;28;20180;-67
2022/09/15 04:51:21;;;;;;;5.82;2.95;;;;;;;17.54;nan;-24305.78;5036342;28;20211;-67
2022/09/15 04:53:48;;;;;;;3.72;3.05;;;;;;;17.51;nan;-24304.81;5036835;28;20685;-66
2022/09/15 04:56:16;;;;;;;4.63;3.25;;;;;;;17.80;nan;-24312.75;5036527;28;20278;-67
2022/09/15 04:58:50;;;;;;;5.03;3.08;;;;;;;17.95;nan;-24316.94;5051764;28;20193;-67
2022/09/15 05:01:21;;;;;;;5.75;3.65;;;;;;;18.20;nan;-24323.78;5036866;28;20175;-67
2022/09/15 05:03:47;;;;;;;3.88;2.70;;;;;;;18.27;nan;-24325.72;5035097;28;20190;-67
2022/09/15 05:06:15;;;;;;;6.00;3.75;;;;;;;18.53;nan;-24333.13;5035790;28;20215;-67
2022/09/15 05:08:41;;;;;;;4.47;3.42;;;;;;;18.45;nan;-24330.88;5035744;28;20202;-67
2022/09/15 05:11:10;;;;;;;6.43;3.30;;;;;;;18.47;nan;-24331.28;5034460;28;20207;-67
2022/09/15 05:13:36;;;;;;;5.50;2.95;;;;;;;18.87;nan;-24342.31;5036591;28;20206;-68
2022/09/15 05:16:14;;;;;;;5.80;2.90;;;;;;;19.01;nan;-24346.19;5034521;28;20183;-67
2022/09/15 05:18:41;;;;;;;7.10;3.10;;;;;;;18.83;nan;-24341.31;5031492;28;20213;-67
2022/09/15 05:21:09;;;;;;;4.93;3.22;;;;;;;19.38;nan;-24356.34;5035784;28;20266;-65
2022/09/15 05:23:35;;;;;;;5.75;3.10;;;;;;;19.12;nan;-24349.25;5036250;28;20197;-66
2022/09/15 05:26:04;;;;;;;4.15;3.10;;;;;;;19.49;nan;-24359.28;5034726;28;20174;-68
2022/09/15 05:28:33;;;;;;;4.28;2.92;;;;;;;19.73;nan;-24366.09;5036303;28;20281;-68
2022/09/15 05:30:58;;;;;;;4.45;2.85;;;;;;;19.74;nan;-24366.38;5035469;28;20294;-67
2022/09/15 05:33:24;;;;;;;4.88;3.00;;;;;;;20.02;nan;-24374.00;5034508;28;20325;-67
2022/09/15 05:36:01;;;;;;;6.10;3.15;;;;;;;20.02;nan;-24373.88;5033297;28;20258;-67
2022/09/15 05:38:29;;;;;;;3.50;2.70;;;;;;;20.50;nan;-24387.22;5036334;28;20389;-67
2022/09/15 05:41:18;;;;;;;5.00;3.30;;;;;;;20.29;nan;-24381.38;5036792;28;20192;-67
2022/09/15 05:43:45;;;;;;;3.85;2.78;;;;;;;20.67;nan;-24391.94;5030875;28;20190;-68
2022/09/15 05:46:12;;;;;;;6.32;2.58;;;;;;;20.55;nan;-24388.47;5036880;28;20182;-67
2022/09/15 05:48:38;;;;;;;4.40;3.05;;;;;;;20.72;nan;-24393.19;5036848;28;20391;-67
2022/09/15 05:51:04;;;;;;;4.88;2.88;;;;;;;20.83;nan;-24396.09;5036599;28;20343;-67
2022/09/15 05:53:31;;;;;;;3.42;2.30;;;;;;;21.10;nan;-24403.72;5037141;28;20265;-68
2022/09/15 05:55:59;;;;;;;3.90;2.60;;;;;;;21.24;nan;-24407.31;5037147;28;20179;-66
2022/09/15 05:58:25;;;;;;;3.97;2.85;;;;;;;21.55;nan;-24415.91;5033070;28;20183;-66
2022/09/15 06:00:54;;;;;;;4.03;2.50;;;;;;;21.28;nan;-24408.56;5046339;28;20198;-66
2022/09/15 06:03:22;;;;;;;5.53;2.70;;;;;;;21.73;nan;-24420.91;5036388;28;20175;-66
2022/09/15 06:05:48;;;;;;;4.03;2.58;;;;;;;21.76;nan;-24421.59;5032705;28;20185;-66
2022/09/15 06:08:15;;;;;;;4.60;2.70;;;;;;;21.83;nan;-24423.69;5032111;28;20638;-67
2022/09/15 06:10:41;;;;;;;4.40;2.22;;;;;;;21.71;nan;-24420.34;5031451;28;20318;-67
2022/09/15 06:13:06;;;;;;;3.70;2.47;;;;;;;21.21;nan;-24406.50;5031674;28;20254;-66
2022/09/15 06:15:32;;;;;;;5.00;2.67;;;;;;;20.93;nan;-24398.88;5031345;28;20615;-66
2022/09/15 06:17:59;;;;;;;3.35;2.58;;;;;;;20.56;nan;-24388.88;5031010;28;20164;-70
2022/09/15 06:20:33;;;;;;;3.72;2.80;;;;;;;20.64;nan;-24390.97;5031137;28;20223;-68
2022/09/15 06:22:59;;;;;;;2.92;2.05;;;;;;;20.26;nan;-24380.53;5032543;28;20257;-68
2022/09/15 06:25:24;;;;;;;2.80;2.47;;;;;;;20.40;nan;-24384.44;5031528;28;20256;-67
2022/09/15 06:27:50;;;;;;;3.35;2.40;;;;;;;20.83;nan;-24396.22;5042263;28;20209;-67
2022/09/15 06:30:17;;;;;;;4.28;2.30;;;;;;;21.10;nan;-24403.56;5031426;28;20183;-67
2022/09/15 06:32:42;;;;;;;3.50;2.40;;;;;;;21.18;nan;-24405.81;5031832;28;20199;-67
2022/09/15 06:35:08;;;;;;;3.05;2.03;;;;;;;21.31;nan;-24409.41;5031333;28;20700;-68
2022/09/15 06:37:33;;;;;;;2.92;2.08;;;;;;;21.50;nan;-24414.66;5031173;28;20168;-67
2022/09/15 06:39:59;;;;;;;2.47;2.20;;;;;;;21.82;nan;-24423.25;5031109;28;20172;-67
2022/09/15 06:42:25;;;;;;;3.30;2.20;;;;;;;21.99;nan;-24428.13;5030965;28;20259;-68
2022/09/15 06:44:50;;;;;;;5.80;2.50;;;;;;;22.35;nan;-24437.94;5031046;28;20245;-67
2022/09/15 06:47:16;;;;;;;2.38;2.17;;;;;;;22.52;nan;-24442.50;5031107;28;20472;-67
2022/09/15 06:49:41;;;;;;;2.97;2.22;;;;;;;22.76;nan;-24449.16;5030917;28;20182;-67
2022/09/15 06:52:07;;;;;;;3.88;2.20;;;;;;;22.89;nan;-24452.59;5030920;28;20293;-67
2022/09/15 06:54:33;;;;;;;3.10;2.80;;;;;;;23.01;nan;-24455.78;5030436;28;20634;-67
2022/09/15 06:56:58;;;;;;;3.15;2.25;;;;;;;23.34;nan;-24465.03;5031134;28;20285;-67
2022/09/15 06:59:24;;;;;;;6.60;2.60;;;;;;;23.46;nan;-24468.06;5041573;28;20186;-67
2022/09/15 07:01:54;;;;;;;2.63;2.10;;;;;;;23.99;nan;-24482.56;5029001;28;20206;-67
2022/09/15 07:04:20;;;;;;;3.20;2.25;;;;;;;23.97;nan;-24482.16;5030422;28;20542;-67
2022/09/15 07:06:46;;;;;;;2.92;2.25;;;;;;;23.89;nan;-24479.94;5029660;28;20557;-67
2022/09/15 07:09:12;;;;;;;2.72;2.38;;;;;;;23.77;nan;-24476.78;5030705;28;20170;-67
2022/09/15 07:11:37;;;;;;;4.50;2.40;;;;;;;23.73;nan;-24475.53;5030428;28;20210;-67
2022/09/15 07:14:03;;;;;;;3.90;2.10;;;;;;;23.73;nan;-24475.53;5030083;28;20167;-67
2022/09/15 07:16:28;;;;;;;3.90;2.40;;;;;;;23.80;nan;-24477.31;5030289;28;20176;-67
2022/09/15 07:18:56;;;;;;;3.20;2.33;;;;;;;24.15;nan;-24486.97;5030373;28;20171;-67
2022/09/15 07:21:22;;;;;;;2.80;2.20;;;;;;;23.91;nan;-24480.34;5028875;28;20683;-68
2022/09/15 07:23:48;;;;;;;3.38;2.13;;;;;;;24.11;nan;-24485.88;5030583;28;20175;-67
2022/09/15 07:26:22;;;;;;;3.40;2.20;;;;;;;24.66;nan;-24500.91;5030639;28;20167;-68
2022/09/15 07:28:50;;;;;;;3.00;2.20;;;;;;;24.64;nan;-24500.34;5030332;28;20183;-67
2022/09/15 07:31:18;;;;;;;2.33;1.98;;;;;;;24.93;nan;-24508.22;5031036;28;20678;-67
2022/09/15 07:33:44;;;;;;;2.85;2.17;;;;;;;25.41;nan;-24521.28;5030552;28;20175;-67
2022/09/15 07:36:10;;;;;;;2.60;2.08;;;;;;;25.65;nan;-24527.88;5030524;28;20708;-67
2022/09/15 07:38:39;;;;;;;2.60;2.00;;;;;;;25.31;nan;-24518.66;5030686;28;20609;-67
2022/09/15 07:41:07;;;;;;;2.70;2.20;;;;;;;25.70;nan;-24529.13;5033728;28;20186;-68
2022/09/15 07:43:32;;;;;;;3.08;2.05;;;;;;;25.92;nan;-24535.19;5034908;28;20313;-67
2022/09/15 07:45:59;;;;;;;4.63;2.88;;;;;;;26.03;nan;-24538.19;5034478;28;20262;-68
2022/09/15 07:48:25;;;;;;;6.47;2.65;;;;;;;26.04;nan;-24538.34;5034017;28;20182;-67
2022/09/15 07:50:51;;;;;;;3.78;2.45;;;;;;;25.60;nan;-24526.50;5033707;28;20342;-68
2022/09/15 07:53:16;;;;;;;2.97;2.38;;;;;;;25.21;nan;-24515.91;5034760;28;20163;-68
2022/09/15 07:55:42;;;;;;;3.70;2.47;;;;;;;25.53;nan;-24524.72;5031680;28;20266;-68
2022/09/15 07:58:07;;;;;;;3.58;2.67;;;;;;;25.39;nan;-24520.88;5033213;28;20340;-67
2022/09/15 08:00:33;;;;;;;4.85;2.20;;;;;;;25.64;nan;-24527.47;5034674;28;20641;-66
2022/09/15 08:02:59;;;;;;;4.03;2.33;;;;;;;25.80;nan;-24532.00;5035179;28;20260;-66
2022/09/15 08:05:27;;;;;;;3.50;2.40;;;;;;;25.14;nan;-24514.00;5035354;28;20182;-65
2022/09/15 08:07:56;;;;;;;3.55;2.45;;;;;;;25.38;nan;-24520.59;5034887;28;20175;-66
2022/09/15 08:10:25;;;;;;;3.92;2.13;;;;;;;25.83;nan;-24532.69;5034303;28;20237;-63
2022/09/15 08:12:51;;;;;;;3.67;2.47;;;;;;;25.69;nan;-24528.84;5034710;28;20199;-64
2022/09/15 08:15:17;;;;;;;2.35;1.85;;;;;;;25.88;nan;-24534.06;5034863;28;20182;-67
2022/09/15 08:17:43;;;;;;;4.28;2.20;;;;;;;26.03;nan;-24538.19;5034534;28;20254;-66
2022/09/15 08:20:09;;;;;;;4.65;2.80;;;;;;;25.75;nan;-24530.66;5034348;28;20270;-67
2022/09/15 08:22:34;;;;;;;2.58;1.80;;;;;;;25.72;nan;-24529.69;5034981;28;20182;-64
2022/09/15 08:25:00;;;;;;;3.22;2.25;;;;;;;26.46;nan;-24549.75;5034238;28;20179;-65
2022/09/15 08:27:26;;;;;;;4.32;2.17;;;;;;;26.67;nan;-24555.50;5034264;28;20179;-66
2022/09/15 08:29:51;;;;;;;4.80;2.20;;;;;;;26.72;nan;-24556.88;5034254;28;20210;-64
2022/09/15 08:32:17;;;;;;;1.98;1.77;;;;;;;27.09;nan;-24567.03;5041638;28;20701;-63
2022/09/15 08:34:42;;;;;;;2.83;2.03;;;;;;;27.29;nan;-24572.38;5038277;28;20261;-70
2022/09/15 08:37:08;;;;;;;2.60;2.10;;;;;;;27.64;nan;-24581.84;5034130;28;20209;-66
2022/09/15 08:39:33;;;;;;;3.28;1.90;;;;;;;27.25;nan;-24571.28;5033624;28;20182;-64
2022/09/15 08:42:01;;;;;;;3.45;2.15;;;;;;;27.54;nan;-24579.25;5034753;28;20271;-65
2022/09/15 08:44:29;;;;;;;5.57;2.10;;;;;;;27.82;nan;-24586.63;5034272;28;20175;-65
2022/09/15 08:46:57;;;;;;;3.17;1.90;;;;;;;27.93;nan;-24589.78;5033879;28;20201;-67
2022/09/15 08:49:28;;;;;;;3.83;1.90;;;;;;;28.12;nan;-24594.84;5033447;28;20175;-63
2022/09/15 08:51:57;;;;;;;4.32;2.60;;;;;;;28.51;nan;-24605.38;5032232;28;20643;-66
2022/09/15 08:54:25;;;;;;;4.40;2.50;;;;;;;28.62;nan;-24608.41;5033308;28;20175;-67
2022/09/15 08:56:51;;;;;;;4.85;2.80;;;;;;;28.83;nan;-24614.00;5033565;28;20207;-66
2022/09/15 08:59:18;;;;;;;2.55;2.20;;;;;;;28.57;nan;-24606.88;5033653;28;20187;-68
2022/09/15 09:01:54;;;;;;;4.57;2.50;;;;;;;28.60;nan;-24607.84;5033471;28;20178;-65
2022/09/15 09:04:46;;;;;;;3.88;2.28;;;;;;;28.95;nan;-24617.28;5033265;28;20699;-64
2022/09/15 09:07:59;;;;;;;4.10;2.28;;;;;;;29.45;nan;-24630.66;5033376;28;20555;-64
2022/09/15 09:10:34;;;;;;;4.35;2.20;;;;;;;29.29;nan;-24626.56;5031560;28;20195;-65
2022/09/15 09:13:44;;;;;;;4.22;1.90;;;;;;;29.44;nan;-24630.53;5032173;28;20617;-65
2022/09/15 09:16:21;;;;;;;6.65;2.40;;;;;;;29.79;nan;-24640.09;5033791;28;20170;-69
2022/09/15 09:18:53;;;;;;;3.38;1.75;;;;;;;30.04;nan;-24646.63;5033738;28;20171;-63
2022/09/15 09:21:18;;;;;;;2.83;1.88;;;;;;;30.18;nan;-24650.44;5033325;28;20230;-64
2022/09/15 09:23:49;;;;;;;4.47;2.42;;;;;;;30.13;nan;-24649.09;5033550;28;20646;-64
2022/09/15 09:26:15;;;;;;;2.67;1.80;;;;;;;30.45;nan;-24657.81;5033592;28;20229;-63
2022/09/15 09:28:54;;;;;;;2.58;1.90;;;;;;;30.42;nan;-24657.00;5033574;28;20174;-66
2022/09/15 09:31:22;;;;;;;2.50;1.85;;;;;;;30.37;nan;-24655.50;5033353;28;20202;-64
2022/09/15 09:34:05;;;;;;;3.53;2.20;;;;;;;30.28;nan;-24653.31;5033336;28;20820;-63
2022/09/15 09:36:31;;;;;;;1.90;1.63;;;;;;;30.35;nan;-24654.94;5033354;28;20175;-60
2022/09/15 09:38:57;;;;;;;4.47;2.30;;;;;;;30.57;nan;-24661.09;5033265;28;20249;-65
2022/09/15 09:41:34;;;;;;;3.67;2.22;;;;;;;30.22;nan;-24651.53;5032852;28;20255;-65
2022/09/15 09:44:01;;;;;;;2.65;1.95;;;;;;;30.09;nan;-24648.00;5033062;28;20170;-63
2022/09/15 09:46:27;;;;;;;5.22;2.03;;;;;;;30.16;nan;-24650.03;5033413;28;20171;-65
2022/09/15 09:49:19;;;;;;;2.45;2.00;;;;;;;30.42;nan;-24657.00;5033630;28;20313;-66
2022/09/15 09:51:51;;;;;;;2.30;2.00;;;;;;;30.37;nan;-24655.50;5033087;28;20191;-64
2022/09/15 09:54:19;;;;;;;3.83;2.00;;;;;;;30.49;nan;-24658.78;5033404;28;20253;-67
2022/09/15 09:56:49;;;;;;;7.50;4.25;;;;;;;30.69;nan;-24664.34;5032978;28;20175;-64
2022/09/15 09:59:45;;;;;;;14.20;6.30;;;;;;;30.79;nan;-24666.81;5033034;28;20175;-67
2022/09/15 10:02:10;;;;;;;8.20;3.65;;;;;;;30.99;nan;-24672.25;5033034;28;20195;-63
2022/09/15 10:04:40;;;;;;;5.57;3.05;;;;;;;31.25;nan;-24679.31;5032012;28;20171;-65
2022/09/15 10:07:07;;;;;;;10.82;6.07;;;;;;;31.08;nan;-24674.69;5032625;28;20175;-67
2022/09/15 10:09:33;;;;;;;9.93;5.28;;;;;;;31.15;nan;-24676.59;5033031;28;20178;-66
2022/09/15 10:12:00;;;;;;;6.72;4.53;;;;;;;31.39;nan;-24683.13;5037053;28;20309;-64
2022/09/15 10:14:38;;;;;;;4.13;3.00;;;;;;;31.09;nan;-24674.97;5039553;28;20289;-66
2022/09/15 10:17:25;;;;;;;2.97;2.03;;;;;;;31.33;nan;-24681.50;5032888;28;20582;-64
2022/09/15 10:19:55;;;;;;;4.28;2.80;;;;;;;31.02;nan;-24673.06;5032872;28;20328;-65
2022/09/15 10:22:33;;;;;;;3.53;2.15;;;;;;;31.55;nan;-24687.50;5033193;28;20253;-65
2022/09/15 10:25:00;;;;;;;2.92;2.00;;;;;;;31.75;nan;-24692.78;5032491;28;20193;-63
2022/09/15 10:27:29;;;;;;;3.60;2.08;;;;;;;31.68;nan;-24690.75;5032596;28;20185;-65
2022/09/15 10:29:58;;;;;;;2.47;1.90;;;;;;;31.94;nan;-24697.94;5032260;28;20166;-63
2022/09/15 10:32:27;;;;;;;3.05;1.90;;;;;;;31.74;nan;-24692.50;5032787;28;20203;-64
2022/09/15 10:35:12;;;;;;;2.33;1.90;;;;;;;31.56;nan;-24687.63;5032413;28;20594;-65
2022/09/15 10:37:58;;;;;;;2.38;1.90;;;;;;;31.12;nan;-24675.91;5032379;28;20189;-65
2022/09/15 10:40:50;;;;;;;2.78;1.52;;;;;;;31.29;nan;-24680.28;5032092;28;20171;-63
2022/09/15 10:43:46;;;;;;;2.85;2.00;;;;;;;31.28;nan;-24680.13;5032343;28;20328;-65
2022/09/15 10:46:39;;;;;;;3.00;1.90;;;;;;;31.43;nan;-24684.09;5032268;28;20202;-67
2022/09/15 10:49:16;;;;;;;1.95;1.60;;;;;;;31.26;nan;-24679.59;5032766;28;20182;-63
2022/09/15 10:51:53;;;;;;;2.28;1.80;;;;;;;30.75;nan;-24665.72;5032471;28;20228;-65
2022/09/15 10:54:34;;;;;;;3.10;1.95;;;;;;;31.26;nan;-24679.47;5032277;28;20225;-63
2022/09/15 10:57:16;;;;;;;3.70;1.90;;;;;;;31.14;nan;-24676.47;5029963;28;20197;-65
2022/09/15 10:59:42;;;;;;;2.38;1.80;;;;;;;31.22;nan;-24678.50;5030175;28;20629;-64
2022/09/15 11:02:22;;;;;;;3.22;1.88;;;;;;;31.12;nan;-24675.78;5031249;28;20182;-64
2022/09/15 11:05:10;;;;;;;3.13;2.20;;;;;;;30.99;nan;-24672.38;5031379;28;20213;-63
2022/09/15 11:07:48;;;;;;;1.90;1.60;;;;;;;30.98;nan;-24671.97;5031116;28;20179;-62
2022/09/15 11:10:53;;;;;;;3.38;2.15;;;;;;;30.91;nan;-24670.22;5031553;28;20169;-66
2022/09/15 11:13:54;;;;;;;2.67;1.83;;;;;;;30.79;nan;-24666.94;5031619;28;20155;-65
2022/09/15 11:16:52;;;;;;;6.13;2.70;;;;;;;31.51;nan;-24686.41;5030275;28;20579;-65
2022/09/15 11:19:27;;;;;;;4.50;2.33;;;;;;;31.34;nan;-24681.78;5030881;28;20194;-65
2022/09/15 11:22:13;;;;;;;2.70;1.85;;;;;;;31.40;nan;-24683.28;5030773;28;20691;-65
2022/09/15 11:24:54;;;;;;;4.28;1.90;;;;;;;31.30;nan;-24680.56;5027594;28;20298;-67
2022/09/15 11:27:26;;;;;;;2.63;2.00;;;;;;;30.87;nan;-24668.97;5029473;28;20646;-68
2022/09/15 11:29:59;;;;;;;1.70;1.60;;;;;;;31.23;nan;-24678.78;5030815;28;20561;-65
2022/09/15 11:32:53;;;;;;;4.25;2.20;;;;;;;31.35;nan;-24681.91;5030786;28;20190;-61
2022/09/15 11:35:46;;;;;;;3.67;1.80;;;;;;;31.34;nan;-24681.78;5030201;28;20654;-65
2022/09/15 11:38:30;;;;;;;2.22;1.75;;;;;;;31.19;nan;-24677.69;5031109;28;20159;-63
2022/09/15 11:41:17;;;;;;;2.40;1.92;;;;;;;31.16;nan;-24676.88;5031301;28;20163;-65
2022/09/15 11:43:53;;;;;;;2.17;1.70;;;;;;;31.23;nan;-24678.66;5031373;28;20190;-64
2022/09/15 11:46:25;;;;;;;2.58;1.92;;;;;;;31.13;nan;-24676.06;5031245;28;20170;-64
2022/09/15 11:48:53;;;;;;;5.65;1.83;;;;;;;31.10;nan;-24675.25;5031104;28;20178;-63
2022/09/15 11:51:24;;;;;;;3.25;2.10;;;;;;;30.71;nan;-24664.91;5030780;28;20209;-65
2022/09/15 11:53:57;;;;;;;3.80;2.10;;;;;;;31.27;nan;-24679.72;5031139;28;20167;-66
2022/09/15 11:56:46;;;;;;;2.70;2.28;;;;;;;30.92;nan;-24670.47;5031060;28;20300;-63
2022/09/15 11:59:41;;;;;;;2.65;2.13;;;;;;;31.15;nan;-24676.59;5030625;28;20239;-66